createdAt,value
2022-09-28T00:01:06.579Z,99130.13
2022-09-28T00:03:34.422Z,99130.34
2022-09-28T00:06:03.938Z,99127.75
2022-09-28T00:08:31.809Z,99124.38
2022-09-28T00:10:59.609Z,99134.16
2022-09-28T00:13:28.130Z,99124.63
2022-09-28T00:16:05.781Z,99122.31
2022-09-28T00:18:33.959Z,99114.56
2022-09-28T00:21:04.707Z,99122.44
2022-09-28T00:23:33.201Z,99121.69
2022-09-28T00:26:04.561Z,99126.91
2022-09-28T00:28:32.699Z,99119.25
2022-09-28T00:31:01.044Z,99118.38
2022-09-28T00:33:30.614Z,99114.94
2022-09-28T00:35:59.035Z,99107.94
2022-09-28T00:38:30.526Z,99115.06
2022-09-28T00:40:59.516Z,99106.34
2022-09-28T00:43:28.022Z,99100.31
2022-09-28T00:46:00.034Z,99095.09
2022-09-28T00:48:33.330Z,99094.31
2022-09-28T00:51:06.395Z,99089.16
2022-09-28T00:53:37.833Z,99091.97
2022-09-28T00:56:08.664Z,99087.63
2022-09-28T00:58:41.890Z,99086.06
2022-09-28T01:01:09.837Z,99078.19
2022-09-28T01:03:41.263Z,99075.59
2022-09-28T01:06:10.490Z,99069.19
2022-09-28T01:08:40.424Z,99065.38
2022-09-28T01:11:08.522Z,99063.00
2022-09-28T01:13:36.998Z,99064.66
2022-09-28T01:16:13.809Z,99067.13
2022-09-28T01:18:53.727Z,99066.94
2022-09-28T01:21:23.295Z,99071.94
2022-09-28T01:24:14.219Z,99056.50
2022-09-28T01:26:57.530Z,99051.50
2022-09-28T01:29:36.734Z,99051.91
2022-09-28T01:32:14.469Z,99040.16
2022-09-28T01:34:48.158Z,99039.91
2022-09-28T01:37:19.333Z,99050.13
2022-09-28T01:39:51.033Z,99043.75
2022-09-28T01:42:25.410Z,99038.34
2022-09-28T01:44:57.153Z,99038.34
2022-09-28T01:47:28.018Z,99036.47
2022-09-28T01:50:01.588Z,99032.13
2022-09-28T01:52:36.058Z,99023.16
2022-09-28T01:55:09.538Z,99027.47
2022-09-28T01:57:43.386Z,99013.22
2022-09-28T02:00:15.799Z,99016.66
2022-09-28T02:02:50.324Z,99016.81
2022-09-28T02:05:30.325Z,99016.72
2022-09-28T02:08:04.576Z,99011.09
2022-09-28T02:10:36.716Z,99012.69
2022-09-28T02:13:12.734Z,99014.13
2022-09-28T02:15:47.076Z,99014.00
2022-09-28T02:18:15.404Z,99003.53
2022-09-28T02:20:50.234Z,99003.53
2022-09-28T02:23:19.863Z,99002.63
2022-09-28T02:25:52.562Z,98998.00
2022-09-28T02:28:23.025Z,98996.13
2022-09-28T02:30:51.727Z,99001.28
2022-09-28T02:33:24.321Z,98991.56
2022-09-28T02:35:52.445Z,98991.72
2022-09-28T02:38:22.286Z,98988.84
2022-09-28T02:41:05.677Z,98992.38
2022-09-28T02:43:47.349Z,98990.56
2022-09-28T02:46:26.721Z,98983.41
2022-09-28T02:49:30.446Z,98988.25
2022-09-28T02:52:25.796Z,98989.00
2022-09-28T02:55:14.546Z,98988.00
2022-09-28T02:57:56.825Z,98982.28
2022-09-28T03:00:27.370Z,98985.69
2022-09-28T03:03:02.409Z,98979.41
2022-09-28T03:05:39.837Z,98978.25
2022-09-28T03:08:16.116Z,98973.13
2022-09-28T03:10:47.690Z,98972.31
2022-09-28T03:13:17.762Z,98967.97
2022-09-28T03:15:48.955Z,98980.53
2022-09-28T03:18:18.798Z,98969.69
2022-09-28T03:20:46.827Z,98975.09
2022-09-28T03:23:29.944Z,98971.63
2022-09-28T03:25:57.886Z,98971.53
2022-09-28T03:28:25.849Z,98969.81
2022-09-28T03:30:55.295Z,98966.66
2022-09-28T03:33:23.511Z,98977.69
2022-09-28T03:35:52.457Z,98969.66
2022-09-28T03:38:21.252Z,98967.09
2022-09-28T03:40:54.548Z,98961.66
2022-09-28T03:43:22.972Z,98961.53
2022-09-28T03:45:58.251Z,98957.81
2022-09-28T03:48:32.134Z,98956.47
2022-09-28T03:51:02.946Z,98957.38
2022-09-28T03:53:31.376Z,98954.25
2022-09-28T03:56:04.721Z,98953.25
2022-09-28T03:58:33.716Z,98955.81
2022-09-28T04:01:12.905Z,98951.69
2022-09-28T04:03:44.422Z,98950.47
2022-09-28T04:06:12.848Z,98938.91
2022-09-28T04:08:40.680Z,98951.38
2022-09-28T04:11:09.816Z,98949.81
2022-09-28T04:13:38.078Z,98943.84
2022-09-28T04:16:11.244Z,98948.00
2022-09-28T04:18:40.316Z,98939.31
2022-09-28T04:21:26.607Z,98941.66
2022-09-28T04:24:04.129Z,98938.25
2022-09-28T04:26:32.021Z,98934.59
2022-09-28T04:29:16.953Z,98936.25
2022-09-28T04:31:53.069Z,98927.38
2022-09-28T04:34:23.982Z,98932.47
2022-09-28T04:36:51.880Z,98926.19
2022-09-28T04:39:20.257Z,98932.38
2022-09-28T04:41:51.485Z,98933.16
2022-09-28T04:44:19.739Z,98933.22
2022-09-28T04:46:50.220Z,98933.16
2022-09-28T04:49:29.918Z,98931.38
2022-09-28T04:52:02.874Z,98934.09
2022-09-28T04:54:30.885Z,98926.94
2022-09-28T04:56:58.831Z,98929.44
2022-09-28T04:59:27.028Z,98926.94
2022-09-28T05:01:56.254Z,98925.53
2022-09-28T05:04:53.356Z,98925.53
2022-09-28T05:07:47.348Z,98928.31
2022-09-28T05:10:15.201Z,98927.94
2022-09-28T05:12:43.184Z,98921.88
2022-09-28T05:15:12.590Z,98923.53
2022-09-28T05:17:42.137Z,98923.66
2022-09-28T05:20:22.134Z,98927.09
2022-09-28T05:22:50.045Z,98921.81
2022-09-28T05:25:18.700Z,98921.81
2022-09-28T05:28:24.804Z,98925.94
2022-09-28T05:31:12.576Z,98919.00
2022-09-28T05:34:00.521Z,98923.22
2022-09-28T05:36:30.925Z,98920.09
2022-09-28T05:38:58.757Z,98918.25
2022-09-28T05:41:26.474Z,98918.94
2022-09-28T05:43:55.034Z,98918.00
2022-09-28T05:46:23.820Z,98919.00
2022-09-28T05:48:52.629Z,98910.94
2022-09-28T05:51:25.329Z,98915.53
2022-09-28T05:53:55.362Z,98914.53
2022-09-28T05:56:24.204Z,98918.25
2022-09-28T05:58:53.407Z,98914.78
2022-09-28T06:01:23.592Z,98916.59
2022-09-28T06:03:53.077Z,98918.09
2022-09-28T06:06:25.710Z,98920.50
2022-09-28T06:08:54.089Z,98924.03
2022-09-28T06:11:54.129Z,98916.94
2022-09-28T06:14:31.095Z,98923.22
2022-09-28T06:16:58.996Z,98926.78
2022-09-28T06:19:26.872Z,98933.81
2022-09-28T06:22:08.849Z,98922.00
2022-09-28T06:24:45.412Z,98922.50
2022-09-28T06:27:13.270Z,98931.09
2022-09-28T06:29:41.010Z,98926.28
2022-09-28T06:32:08.893Z,98930.34
2022-09-28T06:34:38.793Z,98933.94
2022-09-28T06:37:08.117Z,98937.22
2022-09-28T06:39:36.877Z,98935.63
2022-09-28T06:42:05.034Z,98933.72
2022-09-28T06:44:59.275Z,98937.38
2022-09-28T06:47:44.223Z,98942.81
2022-09-28T06:50:19.342Z,98948.44
2022-09-28T06:52:57.071Z,98950.16
2022-09-28T06:55:33.965Z,98944.72
2022-09-28T06:58:05.599Z,98946.44
2022-09-28T07:00:35.988Z,98945.34
2022-09-28T07:03:05.433Z,98944.44
2022-09-28T07:06:13.215Z,98946.13
2022-09-28T07:09:21.044Z,98941.53
2022-09-28T07:12:21.274Z,98946.44
2022-09-28T07:14:57.265Z,98950.16
2022-09-28T07:17:27.602Z,98957.84
2022-09-28T07:19:59.764Z,98953.75
2022-09-28T07:22:41.953Z,98957.28
2022-09-28T07:25:15.824Z,98962.00
2022-09-28T07:28:04.171Z,98964.97
2022-09-28T07:30:57.428Z,98968.69
2022-09-28T07:33:47.416Z,98973.22
2022-09-28T07:36:22.647Z,98971.34
2022-09-28T07:38:51.939Z,98970.56
2022-09-28T07:41:32.158Z,98981.28
2022-09-28T07:44:05.906Z,98981.16
2022-09-28T07:46:35.780Z,98988.59
2022-09-28T07:49:12.732Z,98989.03
2022-09-28T07:52:10.692Z,98987.31
2022-09-28T07:54:52.100Z,98991.44
2022-09-28T07:57:47.007Z,99000.31
2022-09-28T08:00:34.298Z,99001.88
2022-09-28T08:03:03.589Z,99002.53
2022-09-28T08:05:35.819Z,99008.66
2022-09-28T08:08:03.860Z,99014.34
2022-09-28T08:10:31.748Z,99008.66
2022-09-28T08:13:04.738Z,99016.50
2022-09-28T08:15:52.724Z,99024.56
2022-09-28T08:18:34.674Z,99024.19
2022-09-28T08:21:35.503Z,99022.28
2022-09-28T08:24:03.391Z,99031.63
2022-09-28T08:26:31.475Z,99034.38
2022-09-28T08:29:00.612Z,99036.94
2022-09-28T08:31:48.764Z,99040.66
2022-09-28T08:34:34.991Z,99043.16
2022-09-28T08:37:25.609Z,99042.88
2022-09-28T08:40:18.513Z,99042.22
2022-09-28T08:43:23.096Z,99045.66
2022-09-28T08:46:15.952Z,99053.50
2022-09-28T08:49:24.847Z,99052.53
2022-09-28T08:52:17.863Z,99058.03
2022-09-28T08:55:10.891Z,99059.25
2022-09-28T08:57:48.007Z,99059.25
2022-09-28T09:00:21.944Z,99070.56
2022-09-28T09:02:51.393Z,99069.69
2022-09-28T09:05:25.018Z,99075.00
2022-09-28T09:08:24.637Z,99072.00
2022-09-28T09:10:57.847Z,99078.13
2022-09-28T09:14:01.866Z,99075.41
2022-09-28T09:16:38.149Z,99082.44
2022-09-28T09:19:54.205Z,99075.00
2022-09-28T09:22:40.758Z,99083.28
2022-09-28T09:25:19.228Z,99074.94
2022-09-28T09:28:18.174Z,99078.28
2022-09-28T09:30:58.166Z,99082.72
2022-09-28T09:33:46.381Z,99086.88
2022-09-28T09:36:53.511Z,99092.72
2022-09-28T09:39:53.603Z,99091.47
2022-09-28T09:43:05.566Z,99095.06
2022-09-28T09:46:01.453Z,99090.31
2022-09-28T09:48:41.612Z,99098.16
2022-09-28T09:51:18.133Z,99095.44
2022-09-28T09:53:55.480Z,99098.69
2022-09-28T09:56:31.188Z,99105.09
2022-09-28T09:59:19.833Z,99102.53
2022-09-28T10:02:23.633Z,99101.69
2022-09-28T10:05:02.082Z,99111.41
2022-09-28T10:07:43.663Z,99113.09
2022-09-28T10:10:21.429Z,99126.50
2022-09-28T10:12:51.396Z,99116.72
2022-09-28T10:15:24.774Z,99118.31
2022-09-28T10:18:22.233Z,99114.81
2022-09-28T10:21:16.054Z,99120.31
2022-09-28T10:23:56.267Z,99120.09
2022-09-28T10:26:30.401Z,99123.19
2022-09-28T10:29:03.129Z,99129.09
2022-09-28T10:31:39.482Z,99131.97
2022-09-28T10:34:19.642Z,99136.28
2022-09-28T10:36:51.971Z,99140.00
2022-09-28T10:39:38.948Z,99140.44
2022-09-28T10:42:12.245Z,99131.81
2022-09-28T10:44:52.597Z,99135.72
2022-09-28T10:47:37.732Z,99141.88
2022-09-28T10:50:20.922Z,99145.31
2022-09-28T10:52:50.882Z,99150.69
2022-09-28T10:55:41.465Z,99145.63
2022-09-28T10:58:27.943Z,99148.03
2022-09-28T11:01:03.040Z,99154.78
2022-09-28T11:03:33.244Z,99150.25
2022-09-28T11:06:08.537Z,99151.53
2022-09-28T11:08:40.838Z,99146.63
2022-09-28T11:11:12.736Z,99147.56
2022-09-28T11:13:45.484Z,99150.38
2022-09-28T11:16:26.035Z,99146.59
2022-09-28T11:18:55.840Z,99144.84
2022-09-28T11:21:26.007Z,99151.88
2022-09-28T11:24:05.772Z,99154.22
2022-09-28T11:26:39.505Z,99147.44
2022-09-28T11:29:22.178Z,99156.91
2022-09-28T11:32:03.274Z,99146.59
2022-09-28T11:34:58.218Z,99154.47
2022-09-28T11:37:52.771Z,99155.78
2022-09-28T11:40:48.693Z,99154.22
2022-09-28T11:43:30.607Z,99156.66
2022-09-28T11:46:09.788Z,99162.47
2022-09-28T11:48:45.281Z,99156.22
2022-09-28T11:51:19.311Z,99160.56
2022-09-28T11:53:53.280Z,99166.31
2022-09-28T11:56:33.412Z,99166.19
2022-09-28T11:59:05.085Z,99162.78
2022-09-28T12:01:48.259Z,99156.34
2022-09-28T12:04:31.145Z,99164.34
2022-09-28T12:07:05.271Z,99161.84
2022-09-28T12:09:37.262Z,99165.94
2022-09-28T12:12:26.410Z,99164.91
2022-09-28T12:15:02.043Z,99166.53
2022-09-28T12:17:37.867Z,99167.38
2022-09-28T12:20:16.554Z,99172.44
2022-09-28T12:22:49.442Z,99169.00
2022-09-28T12:25:22.243Z,99178.06
2022-09-28T12:27:55.026Z,99173.69
2022-09-28T12:30:25.271Z,99172.38
2022-09-28T12:33:01.053Z,99173.75
2022-09-28T12:35:40.207Z,99174.28
2022-09-28T12:38:30.731Z,99172.75
2022-09-28T12:41:06.616Z,99174.28
2022-09-28T12:43:46.610Z,99178.91
2022-09-28T12:46:29.117Z,99175.81
2022-09-28T12:50:20.047Z,99178.41
2022-09-28T12:52:01.429Z,99172.88
2022-09-28T12:54:56.723Z,99174.97
2022-09-28T12:57:37.306Z,99175.50
2022-09-28T13:00:09.328Z,99182.53
2022-09-28T13:03:18.542Z,99179.59
2022-09-28T13:06:23.648Z,99180.63
2022-09-28T13:09:02.340Z,99181.78
2022-09-28T13:11:34.978Z,99178.88
2022-09-28T13:14:32.861Z,99177.84
2022-09-28T13:17:09.550Z,99181.63
2022-09-28T13:19:44.293Z,99183.91
2022-09-28T13:22:28.407Z,99189.13
2022-09-28T13:25:00.771Z,99183.91
2022-09-28T13:27:35.286Z,99179.66
2022-09-28T13:30:07.901Z,99180.00
2022-09-28T13:32:38.993Z,99186.97
2022-09-28T13:35:07.394Z,99188.75
2022-09-28T13:37:36.486Z,99187.44
2022-09-28T13:40:06.313Z,99196.28
2022-09-28T13:42:50.985Z,99191.13
2022-09-28T13:45:36.102Z,99187.09
2022-09-28T13:48:17.151Z,99193.88
2022-09-28T13:51:02.640Z,99195.56
2022-09-28T13:53:43.197Z,99193.06
2022-09-28T13:56:25.553Z,99196.06
2022-09-28T13:58:58.122Z,99202.75
2022-09-28T14:01:30.786Z,99204.63
2022-09-28T14:04:16.519Z,99196.09
2022-09-28T14:06:49.420Z,99201.75
2022-09-28T14:09:42.432Z,99207.06
2022-09-28T14:12:44.182Z,99202.72
2022-09-28T14:15:40.954Z,99205.91
2022-09-28T14:18:19.053Z,99210.22
2022-09-28T14:20:59.419Z,99212.41
2022-09-28T14:23:50.562Z,99213.13
2022-09-28T14:26:48.416Z,99212.06
2022-09-28T14:29:28.500Z,99217.38
2022-09-28T14:31:58.202Z,99220.63
2022-09-28T14:34:33.412Z,99222.72
2022-09-28T14:37:20.706Z,99224.94
2022-09-28T14:40:06.411Z,99227.75
2022-09-28T14:42:35.707Z,99221.47
2022-09-28T14:45:21.861Z,99229.66
2022-09-28T14:48:21.241Z,99236.78
2022-09-28T14:50:49.957Z,99233.81
2022-09-28T14:53:24.865Z,99230.94
2022-09-28T14:55:56.368Z,99234.81
2022-09-28T14:58:28.742Z,99232.56
2022-09-28T15:01:02.029Z,99236.53
2022-09-28T15:03:34.317Z,99231.88
2022-09-28T15:06:02.747Z,99230.00
2022-09-28T15:08:38.446Z,99230.28
2022-09-28T15:11:07.067Z,99232.09
2022-09-28T15:13:36.255Z,99229.06
2022-09-28T15:16:09.917Z,99232.50
2022-09-28T15:19:18.583Z,99229.50
2022-09-28T15:21:48.691Z,99239.19
2022-09-28T15:24:27.875Z,99241.78
2022-09-28T15:26:56.704Z,99238.94
2022-09-28T15:29:27.260Z,99237.81
2022-09-28T15:31:55.007Z,99238.91
2022-09-28T15:34:48.690Z,99245.13
2022-09-28T15:37:18.989Z,99246.81
2022-09-28T15:39:48.120Z,99248.41
2022-09-28T15:42:18.391Z,99248.72
2022-09-28T15:45:03.960Z,99255.47
2022-09-28T15:47:33.047Z,99257.03
2022-09-28T15:50:02.955Z,99255.28
2022-09-28T15:52:38.279Z,99264.91
2022-09-28T15:55:19.205Z,99257.72
2022-09-28T15:57:47.933Z,99262.31
2022-09-28T16:00:29.612Z,99264.13
2022-09-28T16:03:20.102Z,99262.75
2022-09-28T16:05:50.826Z,99262.66
2022-09-28T16:08:24.683Z,99267.53
2022-09-28T16:11:01.192Z,99263.00
2022-09-28T16:13:29.226Z,99264.56
2022-09-28T16:16:01.104Z,99274.44
2022-09-28T16:18:32.435Z,99274.03
2022-09-28T16:21:26.039Z,99272.81
2022-09-28T16:23:55.793Z,99277.06
2022-09-28T16:26:32.073Z,99269.19
2022-09-28T16:29:00.123Z,99274.66
2022-09-28T16:31:37.047Z,99270.41
2022-09-28T16:34:20.760Z,99264.66
2022-09-28T16:36:50.041Z,99276.75
2022-09-28T16:39:19.289Z,99282.56
2022-09-28T16:41:51.444Z,99282.19
2022-09-28T16:44:24.443Z,99288.00
2022-09-28T16:46:56.886Z,99290.34
2022-09-28T16:49:26.900Z,99283.88
2022-09-28T16:51:55.022Z,99286.88
2022-09-28T16:54:41.584Z,99297.78
2022-09-28T16:57:12.413Z,99295.47
2022-09-28T16:59:40.393Z,99300.09
2022-09-28T17:02:46.321Z,99300.44
2022-09-28T17:05:10.224Z,99301.75
2022-09-28T17:07:38.237Z,99305.72
2022-09-28T17:10:15.580Z,99304.22
2022-09-28T17:12:43.357Z,99303.75
2022-09-28T17:15:11.144Z,99303.19
2022-09-28T17:17:41.125Z,99306.44
2022-09-28T17:20:20.299Z,99305.22
2022-09-28T17:22:48.108Z,99307.63
2022-09-28T17:25:16.285Z,99303.78
2022-09-28T17:27:47.289Z,99307.75
2022-09-28T17:30:16.307Z,99319.66
2022-09-28T17:32:47.115Z,99320.91
2022-09-28T17:35:25.601Z,99323.13
2022-09-28T17:37:53.908Z,99326.91
2022-09-28T17:40:24.186Z,99335.09
2022-09-28T17:42:55.004Z,99342.38
2022-09-28T17:45:23.363Z,99339.78
2022-09-28T17:47:52.809Z,99342.38
2022-09-28T17:50:23.908Z,99341.31
2022-09-28T17:52:53.241Z,99348.13
2022-09-28T17:55:23.044Z,99347.13
2022-09-28T17:57:51.575Z,99354.00
2022-09-28T18:00:19.814Z,99350.44
2022-09-28T18:02:48.647Z,99354.00
2022-09-28T18:05:19.622Z,99361.81
2022-09-28T18:07:48.014Z,99356.59
2022-09-28T18:10:17.473Z,99356.88
2022-09-28T18:12:45.444Z,99355.22
2022-09-28T18:15:13.575Z,99363.34
2022-09-28T18:17:41.757Z,99361.97
2022-09-28T18:20:12.105Z,99374.56
2022-09-28T18:22:41.438Z,99371.22
2022-09-28T18:25:09.507Z,99374.13
2022-09-28T18:27:37.246Z,99373.59
2022-09-28T18:30:06.406Z,99374.66
2022-09-28T18:32:36.800Z,99375.72
2022-09-28T18:35:05.284Z,99375.84
2022-09-28T18:37:37.345Z,99378.66
2022-09-28T18:40:07.874Z,99381.50
2022-09-28T18:42:36.229Z,99386.19
2022-09-28T18:45:05.731Z,99382.91
2022-09-28T18:47:34.851Z,99392.72
2022-09-28T18:50:02.673Z,99391.88
2022-09-28T18:52:30.467Z,99388.44
2022-09-28T18:54:58.219Z,99393.84
2022-09-28T18:57:27.561Z,99395.59
2022-09-28T18:59:55.370Z,99399.28
2022-09-28T19:02:23.412Z,99396.66
2022-09-28T19:04:51.227Z,99399.38
2022-09-28T19:07:19.034Z,99404.72
2022-09-28T19:09:46.890Z,99396.78
2022-09-28T19:12:15.674Z,99398.38
2022-09-28T19:14:44.826Z,99400.00
2022-09-28T19:17:12.721Z,99406.75
2022-09-28T19:19:41.197Z,99407.50
2022-09-28T19:22:09.632Z,99408.25
2022-09-28T19:24:37.412Z,99409.84
2022-09-28T19:27:05.333Z,99406.25
2022-09-28T19:29:33.178Z,99407.97
2022-09-28T19:32:02.831Z,99406.16
2022-09-28T19:34:30.677Z,99408.59
2022-09-28T19:36:58.496Z,99411.25
2022-09-28T19:39:26.389Z,99412.09
2022-09-28T19:41:57.121Z,99415.63
2022-09-28T19:44:27.331Z,99415.69
2022-09-28T19:46:56.871Z,99416.59
2022-09-28T19:49:27.732Z,99420.03
2022-09-28T19:54:49.062Z,99419.19
2022-09-28T19:57:21.212Z,99420.03
2022-09-28T19:59:52.550Z,99428.06
2022-09-28T20:02:21.556Z,99423.63
2022-09-28T20:04:50.974Z,99425.34
2022-09-28T20:07:18.935Z,99423.50
2022-09-28T20:09:46.912Z,99423.50
2022-09-28T20:12:14.735Z,99428.78
2022-09-28T20:14:42.641Z,99426.16
2022-09-28T20:17:11.085Z,99427.06
2022-09-28T20:19:39.127Z,99426.31
2022-09-28T20:22:08.599Z,99424.72
2022-09-28T20:24:36.392Z,99428.31
2022-09-28T20:27:04.259Z,99431.94
2022-09-28T20:29:33.380Z,99427.75
2022-09-28T20:32:02.015Z,99433.13
2022-09-28T20:34:29.824Z,99428.81
2022-09-28T20:36:57.570Z,99432.44
2022-09-28T20:39:26.735Z,99429.91
2022-09-28T20:41:56.215Z,99430.91
2022-09-28T20:44:23.997Z,99431.94
2022-09-28T20:46:52.247Z,99433.00
2022-09-28T20:49:20.108Z,99427.06
2022-09-28T20:51:47.814Z,99431.72
2022-09-28T20:54:15.552Z,99438.13
2022-09-28T20:56:44.782Z,99445.44
2022-09-28T20:59:13.599Z,99447.31
2022-09-28T21:01:42.074Z,99451.00
2022-09-28T21:04:11.297Z,99450.28
2022-09-28T21:06:40.579Z,99454.00
2022-09-28T21:09:10.171Z,99451.50
2022-09-28T21:11:38.683Z,99452.41
2022-09-28T21:14:09.534Z,99450.78
2022-09-28T21:16:37.415Z,99454.28
2022-09-28T21:19:05.501Z,99454.41
2022-09-28T21:21:33.338Z,99463.13
2022-09-28T21:24:01.956Z,99461.31
2022-09-28T21:26:31.332Z,99462.97
2022-09-28T21:29:00.480Z,99470.66
2022-09-28T21:31:33.663Z,99473.16
2022-09-28T21:34:01.903Z,99476.47
2022-09-28T21:36:29.847Z,99478.97
2022-09-28T21:38:57.942Z,99475.28
2022-09-28T21:41:26.242Z,99475.16
2022-09-28T21:43:54.050Z,99473.31
2022-09-28T21:46:22.018Z,99479.41
2022-09-28T21:48:54.324Z,99471.41
2022-09-28T21:51:22.622Z,99480.13
2022-09-28T21:53:50.390Z,99472.97
2022-09-28T21:56:18.775Z,99476.44
2022-09-28T21:58:47.202Z,99477.22
2022-09-28T22:01:17.935Z,99471.81
2022-09-28T22:03:47.974Z,99471.75
2022-09-28T22:06:18.789Z,99476.94
2022-09-28T22:08:47.032Z,99475.13
2022-09-28T22:11:16.700Z,99479.38
2022-09-28T22:13:46.398Z,99479.38
2022-09-28T22:16:15.635Z,99467.94
2022-09-28T22:18:43.732Z,99475.81
2022-09-28T22:21:14.515Z,99480.28
2022-09-28T22:23:44.188Z,99481.97
2022-09-28T22:26:17.346Z,99481.97
2022-09-28T22:28:47.283Z,99478.41
2022-09-28T22:31:15.140Z,99478.41
2022-09-28T22:33:43.117Z,99477.56
2022-09-28T22:36:11.437Z,99474.97
2022-09-28T22:38:39.978Z,99479.25
2022-09-28T22:41:10.201Z,99483.69
2022-09-28T22:43:38.178Z,99484.56
2022-09-28T22:46:07.475Z,99484.53
2022-09-28T22:48:35.720Z,99483.63
2022-09-28T22:51:05.255Z,99481.88
2022-09-28T22:53:33.632Z,99488.88
2022-09-28T22:56:04.561Z,99481.13
2022-09-28T22:58:33.785Z,99485.38
2022-09-28T23:01:06.876Z,99483.56
2022-09-28T23:03:34.844Z,99488.88
2022-09-28T23:06:02.869Z,99489.75
2022-09-28T23:08:32.098Z,99487.03
2022-09-28T23:11:00.309Z,99489.75
2022-09-28T23:13:28.658Z,99496.88
2022-09-28T23:15:58.811Z,99485.38
2022-09-28T23:18:29.554Z,99482.72
2022-09-28T23:20:58.687Z,99473.88
2022-09-28T23:23:27.455Z,99481.00
2022-09-28T23:25:55.427Z,99477.56
2022-09-28T23:28:25.385Z,99475.97
2022-09-28T23:30:53.518Z,99476.19
2022-09-28T23:33:23.621Z,99478.31
2022-09-28T23:35:51.621Z,99475.03
2022-09-28T23:38:19.816Z,99484.25
2022-09-28T23:40:48.077Z,99485.38
2022-09-28T23:43:16.270Z,99486.53
2022-09-28T23:45:44.555Z,99485.97
2022-09-28T23:48:15.115Z,99495.81
2022-09-28T23:50:45.321Z,99491.63
2022-09-28T23:53:14.710Z,99491.88
2022-09-28T23:55:43.775Z,99496.38
2022-09-28T23:58:11.801Z,99494.88
